AIRPORT_AIRPORT_METAR
METAR FOR LFBZ
ADDS - METARS form results

(0005 UTC 06 December 2019)
Data provider http://aviationweather.gov/metar/data/
 
METAR text: LFBZ 060000Z AUTO 20003KT 9999 FEW013 07/07 Q1024
Conditions at: LFBZ (BIARRITZ/ANGLET , FR) observed 0000 UTC 06 December 2019
Temperature: 7.0°C (45°F)
Dewpoint: 7.0°C (45°F) [RH = 100%]
Pressure (altimeter): 30.24 inches Hg (1024.0 mb)
Winds: from the SSW (200 degrees) at 3 MPH (3 knots; 1.5 m/s)
Visibility: 6 or more miles (10+ km)
Ceiling: at least 12,000 feet AGL
Clouds: few clouds at 1300 feet AGL
Weather: no significant weather observed at this time

METAR text: LFBZ 052330Z AUTO 19004KT CAVOK 07/07 Q1024
Conditions at: LFBZ (BIARRITZ/ANGLET , FR) observed 2330 UTC 05 December 2019
Temperature: 7.0°C (45°F)
Dewpoint: 7.0°C (45°F) [RH = 100%]
Pressure (altimeter): 30.24 inches Hg (1024.0 mb)
Winds: from the S (190 degrees) at 5 MPH (4 knots; 2.1 m/s)
Visibility: 6 or more miles (10+ km)
Ceiling: ceiling and visibility are OK
Clouds: unknown
Weather: no significant weather observed at this time

 AIRPORT_AIRPORT_MAP

 AIRPORT_RUNWAY_INFO
AIRPORT_RUNWAY 09 AIRPORT_RUNWAY_LENGTH 7382 ft AIRPORT_RUNWAY_WIDTH 148 ft
AIRPORT_RUNWAY_ELEVATION 242 ft AIRPORT_RUNWAY_THRESHOLD 656 ft AIRPORT_RUNWAY_HEADING 89
AIRPORT_RUNWAY 27 AIRPORT_RUNWAY_LENGTH 7382 ft AIRPORT_RUNWAY_WIDTH 148 ft
AIRPORT_RUNWAY_ELEVATION 219 ft AIRPORT_RUNWAY_THRESHOLD 0 ft AIRPORT_RUNWAY_HEADING 269

 AIRPORT_AIRPORT_FREQUENCIES
AIRPORT_AIRPORT_NAVAIDS_TYPE APP AIRPORT_AIRPORT_NAVAIDS_NAME BIARRITZ A AIRPORT_AIRPORT_NAVAIDS_FREQ 125.6 MHZ
AIRPORT_AIRPORT_NAVAIDS_TYPE ATIS AIRPORT_AIRPORT_NAVAIDS_NAME ATIS AIRPORT_AIRPORT_NAVAIDS_FREQ 128.225 MHZ
AIRPORT_AIRPORT_NAVAIDS_TYPE GND AIRPORT_AIRPORT_NAVAIDS_NAME BIARRITZ G AIRPORT_AIRPORT_NAVAIDS_FREQ 121.95 MHZ
AIRPORT_AIRPORT_NAVAIDS_TYPE TWR AIRPORT_AIRPORT_NAVAIDS_NAME BIARRITZ T AIRPORT_AIRPORT_NAVAIDS_FREQ 118.7 MHZ

 AIRPORT_AIRPORT_NAVAIDS
AIRPORT_AIRPORT_NAVAIDS_TYPE VOR-DME AIRPORT_AIRPORT_NAVAIDS_NAME Biarritz AIRPORT_AIRPORT_NAVAIDS_FREQ 114150 KHZ
AIRPORT_AIRPORT_NAVAIDS_TYPE NDB AIRPORT_AIRPORT_NAVAIDS_NAME Biarritz AIRPORT_AIRPORT_NAVAIDS_FREQ 341 KHZ



Copyright © 2005-2019 - Virtuel Air Alsace - Tous droits réservés